createdAt,value
2022-10-17T00:00:29.555Z,4.59
2022-10-17T00:01:31.430Z,4.51
2022-10-17T00:02:33.221Z,4.32
2022-10-17T00:03:35.028Z,4.31
2022-10-17T00:04:36.917Z,4.58
2022-10-17T00:05:38.731Z,4.81
2022-10-17T00:06:40.578Z,4.64
2022-10-17T00:07:42.416Z,4.69
2022-10-17T00:08:44.251Z,4.22
2022-10-17T00:09:46.097Z,4.31
2022-10-17T00:10:47.923Z,4.60
2022-10-17T00:11:49.732Z,4.36
2022-10-17T00:12:51.587Z,4.38
2022-10-17T00:13:53.418Z,4.31
2022-10-17T00:14:55.267Z,5.10
2022-10-17T00:15:57.100Z,4.16
2022-10-17T00:16:58.917Z,3.72
2022-10-17T00:18:00.738Z,4.24
2022-10-17T00:19:03.182Z,4.25
2022-10-17T00:20:05.483Z,4.20
2022-10-17T00:21:07.314Z,4.35
2022-10-17T00:22:09.134Z,3.73
2022-10-17T00:23:10.960Z,4.42
2022-10-17T00:24:12.774Z,4.18
2022-10-17T00:25:14.644Z,4.19
2022-10-17T00:26:16.460Z,4.14
2022-10-17T00:27:18.194Z,4.21
2022-10-17T00:28:20.035Z,3.83
2022-10-17T00:29:21.857Z,4.11
2022-10-17T00:30:23.714Z,4.59
2022-10-17T00:31:25.441Z,4.21
2022-10-17T00:32:27.439Z,4.05
2022-10-17T00:33:29.598Z,4.89
2022-10-17T00:34:31.428Z,4.13
2022-10-17T00:35:33.348Z,4.21
2022-10-17T00:36:35.180Z,4.37
2022-10-17T00:37:37.002Z,4.57
2022-10-17T00:38:38.830Z,4.08
2022-10-17T00:39:40.645Z,4.10
2022-10-17T00:40:42.555Z,4.09
2022-10-17T00:41:44.422Z,4.44
2022-10-17T00:42:46.254Z,4.49
2022-10-17T00:43:47.982Z,4.23
2022-10-17T00:44:49.802Z,4.49
2022-10-17T00:45:51.559Z,3.65
2022-10-17T00:46:53.381Z,3.91
2022-10-17T00:47:55.095Z,4.86
2022-10-17T00:48:56.913Z,5.32
2022-10-17T00:49:58.772Z,5.07
2022-10-17T00:51:00.690Z,5.13
2022-10-17T00:52:02.827Z,4.75
2022-10-17T00:53:04.653Z,4.29
2022-10-17T00:54:06.498Z,4.73
2022-10-17T00:55:08.216Z,4.12
2022-10-17T00:56:10.070Z,4.39
2022-10-17T00:57:11.885Z,4.17
2022-10-17T00:58:13.605Z,5.09
2022-10-17T00:59:15.429Z,5.07
2022-10-17T01:00:17.507Z,4.82
2022-10-17T01:01:19.371Z,4.74
2022-10-17T01:02:21.178Z,4.63
2022-10-17T01:03:22.905Z,4.61
2022-10-17T01:04:24.734Z,4.34
2022-10-17T01:05:26.451Z,4.49
2022-10-17T01:06:28.339Z,4.77
2022-10-17T01:07:33.227Z,4.59
2022-10-17T01:08:33.786Z,5.09
2022-10-17T01:09:35.634Z,4.15
2022-10-17T01:10:37.432Z,4.87
2022-10-17T01:11:39.291Z,4.80
2022-10-17T01:12:41.108Z,5.14
2022-10-17T01:13:42.946Z,4.55
2022-10-17T01:14:44.781Z,4.47
2022-10-17T01:15:46.494Z,5.16
2022-10-17T01:16:48.450Z,5.21
2022-10-17T01:17:50.276Z,4.79
2022-10-17T01:18:52.112Z,5.31
2022-10-17T01:19:53.946Z,4.58
2022-10-17T01:20:55.883Z,4.68
2022-10-17T01:21:57.661Z,4.54
2022-10-17T01:22:59.489Z,4.88
2022-10-17T01:24:01.303Z,4.69
2022-10-17T01:25:03.123Z,4.71
2022-10-17T01:26:04.937Z,5.00
2022-10-17T01:27:06.691Z,4.87
2022-10-17T01:28:08.517Z,5.29
2022-10-17T01:29:10.235Z,5.05
2022-10-17T01:30:12.244Z,5.14
2022-10-17T01:31:13.965Z,4.87
2022-10-17T01:32:15.833Z,5.57
2022-10-17T01:33:17.660Z,5.30
2022-10-17T01:34:19.469Z,5.51
2022-10-17T01:35:21.293Z,4.89
2022-10-17T01:36:23.117Z,4.88
2022-10-17T01:37:24.912Z,4.89
2022-10-17T01:38:26.747Z,5.16
2022-10-17T01:39:30.084Z,5.03
2022-10-17T01:40:32.274Z,5.12
2022-10-17T01:41:34.095Z,5.07
2022-10-17T01:42:35.954Z,4.58
2022-10-17T01:43:37.761Z,4.67
2022-10-17T01:44:39.573Z,4.91
2022-10-17T01:45:41.401Z,4.66
2022-10-17T01:46:43.204Z,5.29
2022-10-17T01:47:45.043Z,5.27
2022-10-17T01:48:46.845Z,4.87
2022-10-17T01:49:48.540Z,4.65
2022-10-17T01:50:50.340Z,4.87
2022-10-17T01:51:52.136Z,4.89
2022-10-17T01:52:54.045Z,4.59
2022-10-17T01:53:55.831Z,4.46
2022-10-17T01:54:57.531Z,4.91
2022-10-17T01:55:59.323Z,4.92
2022-10-17T01:57:01.123Z,4.62
2022-10-17T01:58:02.868Z,4.93
2022-10-17T01:59:04.681Z,4.74
2022-10-17T02:00:06.472Z,4.52
2022-10-17T02:01:08.333Z,4.74
2022-10-17T02:02:10.084Z,4.79
2022-10-17T02:03:11.912Z,4.40
2022-10-17T02:04:13.609Z,4.70
2022-10-17T02:05:15.409Z,4.78
2022-10-17T02:06:17.101Z,5.03
2022-10-17T02:07:18.901Z,4.67
2022-10-17T02:08:20.777Z,5.42
2022-10-17T02:09:22.592Z,4.50
2022-10-17T02:10:24.484Z,5.13
2022-10-17T02:11:26.284Z,5.07
2022-10-17T02:12:27.991Z,5.04
2022-10-17T02:13:29.820Z,5.17
2022-10-17T02:14:31.632Z,5.33
2022-10-17T02:15:33.428Z,5.31
2022-10-17T02:16:35.219Z,5.45
2022-10-17T02:17:37.027Z,5.33
2022-10-17T02:18:38.864Z,5.25
2022-10-17T02:19:40.662Z,5.82
2022-10-17T02:20:42.457Z,6.05
2022-10-17T02:21:44.287Z,5.30
2022-10-17T02:22:45.981Z,5.51
2022-10-17T02:23:47.861Z,5.28
2022-10-17T02:24:49.708Z,5.51
2022-10-17T02:25:51.465Z,5.19
2022-10-17T02:26:53.262Z,5.35
2022-10-17T02:27:55.066Z,5.40
2022-10-17T02:28:56.942Z,5.57
2022-10-17T02:29:58.614Z,4.92
2022-10-17T02:31:00.394Z,5.26
2022-10-17T02:32:02.192Z,5.35
2022-10-17T02:33:03.991Z,4.79
2022-10-17T02:34:05.842Z,5.36
2022-10-17T02:35:07.649Z,5.49
2022-10-17T02:36:10.997Z,5.19
2022-10-17T02:37:12.798Z,5.51
2022-10-17T02:38:14.595Z,5.23
2022-10-17T02:39:16.499Z,5.28
2022-10-17T02:40:18.307Z,5.46
2022-10-17T02:41:20.033Z,4.76
2022-10-17T02:42:21.797Z,5.29
2022-10-17T02:43:23.597Z,5.59
2022-10-17T02:44:25.429Z,5.35
2022-10-17T02:45:27.244Z,5.56
2022-10-17T02:46:29.031Z,5.56
2022-10-17T02:47:30.828Z,5.92
2022-10-17T02:48:32.527Z,6.57
2022-10-17T02:49:34.365Z,7.02
2022-10-17T02:50:36.178Z,7.62
2022-10-17T02:51:37.977Z,8.70
2022-10-17T02:52:39.762Z,8.73
2022-10-17T02:53:41.471Z,8.90
2022-10-17T02:54:43.238Z,8.99
2022-10-17T02:55:45.044Z,7.58
2022-10-17T02:56:46.851Z,7.84
2022-10-17T02:57:48.659Z,7.58
2022-10-17T02:58:50.450Z,8.08
2022-10-17T02:59:52.305Z,7.79
2022-10-17T03:00:54.299Z,8.73
2022-10-17T03:01:56.135Z,8.86
2022-10-17T03:02:57.937Z,8.10
2022-10-17T03:03:59.745Z,7.88
2022-10-17T03:05:01.582Z,8.07
2022-10-17T03:06:03.404Z,7.43
2022-10-17T03:07:05.087Z,7.38
2022-10-17T03:08:06.694Z,6.70
2022-10-17T03:09:08.485Z,7.19
2022-10-17T03:10:10.370Z,6.49
2022-10-17T03:11:12.179Z,6.20
2022-10-17T03:12:14.021Z,5.55
2022-10-17T03:13:15.825Z,6.04
2022-10-17T03:14:17.514Z,5.76
2022-10-17T03:15:19.354Z,5.92
2022-10-17T03:16:21.140Z,5.67
2022-10-17T03:17:22.842Z,5.35
2022-10-17T03:18:24.660Z,5.85
2022-10-17T03:19:26.456Z,5.35
2022-10-17T03:20:28.276Z,5.31
2022-10-17T03:21:30.092Z,5.53
2022-10-17T03:22:32.157Z,5.28
2022-10-17T03:23:34.102Z,5.34
2022-10-17T03:24:35.803Z,5.10
2022-10-17T03:25:38.032Z,5.36
2022-10-17T03:26:39.903Z,5.01
2022-10-17T03:27:41.622Z,4.85
2022-10-17T03:28:43.490Z,5.71
2022-10-17T03:29:45.326Z,5.09
2022-10-17T03:30:47.265Z,4.89
2022-10-17T03:31:49.070Z,4.83
2022-10-17T03:32:50.882Z,5.02
2022-10-17T03:33:52.670Z,4.86
2022-10-17T03:34:54.392Z,5.03
2022-10-17T03:35:56.251Z,4.61
2022-10-17T03:36:58.041Z,5.68
2022-10-17T03:37:59.833Z,5.16
2022-10-17T03:39:01.669Z,5.39
2022-10-17T03:40:03.487Z,5.41
2022-10-17T03:41:05.342Z,5.79
2022-10-17T03:42:07.134Z,5.52
2022-10-17T03:43:08.933Z,5.63
2022-10-17T03:44:10.730Z,5.39
2022-10-17T03:45:12.532Z,6.27
2022-10-17T03:46:14.381Z,5.94
2022-10-17T03:47:16.160Z,6.70
2022-10-17T03:48:17.950Z,6.54
2022-10-17T03:49:19.756Z,7.17
2022-10-17T03:50:21.566Z,6.46
2022-10-17T03:51:23.383Z,6.20
2022-10-17T03:52:25.171Z,5.59
2022-10-17T03:53:26.867Z,5.98
2022-10-17T03:54:28.674Z,5.29
2022-10-17T03:55:30.480Z,5.59
2022-10-17T03:56:32.427Z,5.46
2022-10-17T03:57:34.217Z,5.23
2022-10-17T03:58:36.054Z,5.76
2022-10-17T03:59:37.901Z,5.25
2022-10-17T04:00:39.736Z,5.89
2022-10-17T04:01:41.745Z,5.99
2022-10-17T04:02:43.670Z,5.76
2022-10-17T04:03:45.489Z,6.12
2022-10-17T04:04:47.329Z,5.82
2022-10-17T04:05:49.060Z,6.11
2022-10-17T04:06:50.914Z,5.36
2022-10-17T04:07:52.737Z,6.03
2022-10-17T04:08:54.553Z,5.93
2022-10-17T04:09:56.263Z,6.87
2022-10-17T04:10:58.084Z,6.21
2022-10-17T04:11:59.979Z,5.71
2022-10-17T04:13:01.807Z,5.78
2022-10-17T04:14:03.653Z,6.01
2022-10-17T04:15:05.378Z,5.95
2022-10-17T04:16:07.899Z,6.17
2022-10-17T04:17:09.755Z,6.26
2022-10-17T04:18:11.610Z,5.92
2022-10-17T04:19:13.419Z,6.41
2022-10-17T04:20:15.358Z,6.39
2022-10-17T04:21:17.102Z,6.33
2022-10-17T04:22:18.939Z,6.55
2022-10-17T04:23:20.763Z,6.03
2022-10-17T04:24:22.597Z,5.61
2022-10-17T04:25:24.334Z,6.14
2022-10-17T04:26:26.137Z,6.31
2022-10-17T04:27:28.028Z,6.36
2022-10-17T04:28:29.945Z,6.16
2022-10-17T04:29:31.876Z,5.82
2022-10-17T04:30:33.695Z,6.41
2022-10-17T04:31:35.520Z,5.74
2022-10-17T04:32:37.586Z,6.07
2022-10-17T04:33:39.431Z,5.59
2022-10-17T04:34:41.245Z,5.73
2022-10-17T04:35:43.076Z,6.13
2022-10-17T04:36:44.936Z,5.82
2022-10-17T04:37:46.803Z,6.09
2022-10-17T04:38:48.620Z,5.37
2022-10-17T04:39:50.457Z,6.33
2022-10-17T04:40:52.293Z,5.83
2022-10-17T04:41:54.120Z,5.89
2022-10-17T04:42:56.100Z,5.66
2022-10-17T04:43:57.943Z,5.62
2022-10-17T04:44:59.765Z,6.11
2022-10-17T04:46:01.585Z,5.57
2022-10-17T04:47:03.295Z,5.66
2022-10-17T04:48:05.151Z,5.92
2022-10-17T04:49:06.992Z,5.63
2022-10-17T04:50:09.636Z,5.93
2022-10-17T04:51:12.334Z,5.86
2022-10-17T04:52:14.707Z,6.11
2022-10-17T04:53:16.891Z,5.69
2022-10-17T04:54:19.110Z,6.08
2022-10-17T04:55:21.127Z,5.89
2022-10-17T04:56:23.251Z,6.04
2022-10-17T04:57:25.421Z,6.11
2022-10-17T04:58:27.419Z,6.13
2022-10-17T04:59:29.473Z,5.91
2022-10-17T05:00:32.776Z,6.11
2022-10-17T05:01:35.134Z,6.03
2022-10-17T05:02:36.859Z,6.12
2022-10-17T05:03:39.024Z,6.02
2022-10-17T05:04:40.944Z,5.95
2022-10-17T05:05:42.869Z,6.21
2022-10-17T05:06:45.202Z,6.16
2022-10-17T05:07:47.027Z,6.31
2022-10-17T05:08:48.909Z,6.59
2022-10-17T05:09:50.740Z,7.99
2022-10-17T05:10:52.713Z,7.87
2022-10-17T05:11:54.822Z,7.50
2022-10-17T05:12:56.613Z,7.14
2022-10-17T05:13:58.560Z,8.05
2022-10-17T05:15:00.478Z,7.38
2022-10-17T05:16:02.757Z,7.80
2022-10-17T05:17:04.595Z,7.08
2022-10-17T05:18:06.418Z,7.15
2022-10-17T05:19:09.738Z,7.47
2022-10-17T05:20:11.924Z,8.07
2022-10-17T05:21:13.743Z,7.85
2022-10-17T05:22:15.566Z,7.89
2022-10-17T05:23:17.471Z,8.99
2022-10-17T05:24:19.711Z,8.59
2022-10-17T05:25:21.550Z,17.27
2022-10-17T05:26:24.473Z,21.54
2022-10-17T05:27:29.590Z,26.67
2022-10-17T05:28:32.316Z,26.58
2022-10-17T05:29:35.155Z,19.67
2022-10-17T05:30:38.151Z,16.64
2022-10-17T05:31:40.324Z,18.93
2022-10-17T05:32:42.407Z,19.55
2022-10-17T05:33:44.234Z,18.61
2022-10-17T05:34:46.089Z,14.95
2022-10-17T05:35:47.906Z,15.40
2022-10-17T05:36:49.736Z,13.81
2022-10-17T05:37:51.571Z,12.44
2022-10-17T05:38:53.280Z,9.60
2022-10-17T05:39:55.134Z,10.17
2022-10-17T05:40:57.160Z,6.29
2022-10-17T05:41:58.994Z,8.23
2022-10-17T05:43:00.817Z,8.38
2022-10-17T05:44:05.453Z,7.68
2022-10-17T05:45:06.783Z,8.19
2022-10-17T05:46:09.118Z,8.61
2022-10-17T05:47:10.946Z,9.09
2022-10-17T05:48:12.775Z,8.43
2022-10-17T05:49:19.752Z,7.18
2022-10-17T05:50:18.291Z,6.37
2022-10-17T05:51:20.140Z,5.97
2022-10-17T05:52:21.981Z,7.01
2022-10-17T05:53:24.724Z,6.91
2022-10-17T05:54:27.200Z,5.66
2022-10-17T05:55:29.653Z,6.13
2022-10-17T05:56:32.141Z,6.31
2022-10-17T05:57:34.973Z,5.73
2022-10-17T05:58:49.940Z,5.56
2022-10-17T05:59:41.525Z,5.65
2022-10-17T06:01:48.396Z,7.44
2022-10-17T06:02:50.249Z,6.23
2022-10-17T06:03:52.072Z,6.46
2022-10-17T06:04:53.913Z,6.01
2022-10-17T06:05:55.685Z,6.23
2022-10-17T06:06:57.501Z,5.86
2022-10-17T06:08:01.854Z,6.67
2022-10-17T06:09:02.951Z,6.22
2022-10-17T06:10:04.976Z,5.98
2022-10-17T06:11:09.895Z,5.77
2022-10-17T06:12:10.358Z,5.67
2022-10-17T06:13:12.172Z,6.07
2022-10-17T06:14:13.958Z,6.01
2022-10-17T06:15:15.757Z,5.63
2022-10-17T06:16:17.688Z,5.53
2022-10-17T06:17:19.478Z,5.94
2022-10-17T06:18:21.389Z,5.79
2022-10-17T06:19:23.189Z,5.65
2022-10-17T06:20:24.990Z,5.75
2022-10-17T06:21:26.723Z,5.80
2022-10-17T06:22:28.637Z,5.72
2022-10-17T06:23:30.630Z,5.35
2022-10-17T06:24:32.329Z,4.76
2022-10-17T06:25:34.029Z,5.49
2022-10-17T06:26:35.872Z,6.04
2022-10-17T06:27:37.689Z,5.21
2022-10-17T06:28:39.544Z,5.26
2022-10-17T06:29:41.319Z,5.32
2022-10-17T06:30:43.108Z,5.14
2022-10-17T06:31:45.059Z,5.65
2022-10-17T06:32:46.849Z,5.91
2022-10-17T06:33:48.659Z,5.64
2022-10-17T06:34:50.441Z,5.72
2022-10-17T06:41:56.383Z,5.01
2022-10-17T06:42:58.207Z,6.07
2022-10-17T06:44:00.072Z,5.54
2022-10-17T06:45:01.888Z,5.99
2022-10-17T06:46:03.749Z,6.21
2022-10-17T06:47:05.501Z,11.96
2022-10-17T06:48:07.318Z,13.36
2022-10-17T06:49:09.156Z,10.95
2022-10-17T06:50:11.179Z,7.13
2022-10-17T06:51:12.996Z,6.70
2022-10-17T06:52:14.720Z,6.93
2022-10-17T06:53:16.538Z,7.09
2022-10-17T06:54:18.391Z,7.30
2022-10-17T06:55:22.785Z,6.91
2022-10-17T06:56:23.860Z,5.85
2022-10-17T06:57:25.784Z,6.70
2022-10-17T06:58:27.623Z,5.57
2022-10-17T06:59:29.497Z,5.31
2022-10-17T07:00:31.358Z,5.20
2022-10-17T07:01:33.169Z,5.56
2022-10-17T07:02:35.043Z,5.70
2022-10-17T07:03:36.894Z,5.81
2022-10-17T07:04:38.732Z,5.34
2022-10-17T07:05:40.555Z,5.49
2022-10-17T07:06:42.367Z,5.35
2022-10-17T07:07:45.579Z,5.45
2022-10-17T07:08:47.884Z,5.75
2022-10-17T07:09:49.726Z,5.63
2022-10-17T07:10:51.543Z,5.16
2022-10-17T07:11:53.292Z,5.01
2022-10-17T07:12:55.126Z,4.78
2022-10-17T07:13:56.967Z,4.75
2022-10-17T07:14:58.795Z,5.15
2022-10-17T07:16:00.554Z,5.12
2022-10-17T07:17:02.395Z,5.47
2022-10-17T07:18:04.114Z,5.27
2022-10-17T07:19:05.984Z,4.72
2022-10-17T07:20:07.920Z,4.73
2022-10-17T07:21:09.667Z,5.09
2022-10-17T07:22:11.681Z,5.19
2022-10-17T07:23:13.544Z,4.73
2022-10-17T07:24:15.407Z,5.61
2022-10-17T07:25:17.226Z,4.47
2022-10-17T07:26:19.118Z,4.96
2022-10-17T07:27:20.960Z,4.59
2022-10-17T07:28:22.827Z,4.96
2022-10-17T07:29:24.643Z,4.87
2022-10-17T07:30:26.462Z,4.69
2022-10-17T07:31:28.317Z,4.66
2022-10-17T07:32:30.180Z,4.44
2022-10-17T07:33:31.998Z,4.71
2022-10-17T07:34:33.840Z,5.11
2022-10-17T07:35:35.665Z,4.35
2022-10-17T07:36:37.491Z,3.93
2022-10-17T07:37:39.315Z,3.80
2022-10-17T07:38:41.156Z,4.35
2022-10-17T07:39:42.901Z,4.69
2022-10-17T07:40:44.734Z,4.11
2022-10-17T07:41:46.630Z,4.14
2022-10-17T07:42:48.378Z,3.93
2022-10-17T07:43:50.227Z,4.31
2022-10-17T07:44:52.072Z,4.07
2022-10-17T07:45:53.905Z,4.49
2022-10-17T07:46:55.741Z,4.66
2022-10-17T07:47:57.601Z,5.51
2022-10-17T07:48:59.433Z,6.43
2022-10-17T07:50:01.289Z,6.18
2022-10-17T07:51:03.137Z,5.40
2022-10-17T07:52:04.970Z,5.17
2022-10-17T07:53:06.798Z,4.94
2022-10-17T07:54:08.631Z,5.29
2022-10-17T07:55:10.347Z,4.75
2022-10-17T07:56:12.853Z,4.95
2022-10-17T07:57:14.586Z,4.76
2022-10-17T07:58:16.408Z,4.64
2022-10-17T07:59:18.262Z,4.55
2022-10-17T08:00:20.090Z,4.60
2022-10-17T08:01:21.941Z,4.62
2022-10-17T08:02:23.821Z,4.04
2022-10-17T08:03:25.693Z,4.58
2022-10-17T08:04:27.430Z,4.31
2022-10-17T08:05:29.299Z,4.07
2022-10-17T08:06:31.154Z,4.01
2022-10-17T08:07:32.977Z,3.78
2022-10-17T08:08:34.826Z,4.55
2022-10-17T08:09:36.654Z,5.01
2022-10-17T08:10:38.464Z,5.03
2022-10-17T08:11:40.313Z,5.03
2022-10-17T08:12:42.190Z,5.33
2022-10-17T08:13:43.999Z,7.08
2022-10-17T08:14:45.821Z,6.63
2022-10-17T08:15:47.652Z,6.05
2022-10-17T08:16:49.512Z,5.67
2022-10-17T08:17:51.369Z,7.89
2022-10-17T08:18:53.204Z,5.43
2022-10-17T08:19:55.041Z,6.01
2022-10-17T08:20:59.478Z,6.81
2022-10-17T08:22:00.610Z,6.51
2022-10-17T08:23:02.457Z,6.66
2022-10-17T08:24:04.305Z,6.25
2022-10-17T08:25:06.088Z,6.95
2022-10-17T08:26:07.902Z,6.21
2022-10-17T08:27:09.744Z,6.71
2022-10-17T08:28:11.536Z,6.51
2022-10-17T08:29:13.398Z,6.07
2022-10-17T08:30:15.173Z,5.74
2022-10-17T08:31:16.963Z,5.55
2022-10-17T08:32:18.842Z,5.59
2022-10-17T08:33:20.650Z,5.46
2022-10-17T08:34:22.433Z,5.67
2022-10-17T08:35:24.123Z,5.53
2022-10-17T08:36:25.946Z,4.90
2022-10-17T08:37:28.045Z,5.08
2022-10-17T08:38:32.106Z,5.14
2022-10-17T08:39:33.669Z,5.84
2022-10-17T08:40:35.499Z,5.32
2022-10-17T08:41:37.283Z,5.44
2022-10-17T08:42:39.157Z,5.35
2022-10-17T08:43:40.979Z,5.78
2022-10-17T08:44:42.693Z,5.34
2022-10-17T08:45:44.486Z,5.66
2022-10-17T08:46:46.280Z,4.42
2022-10-17T08:47:48.121Z,4.84
2022-10-17T08:48:49.962Z,4.65
2022-10-17T08:49:51.675Z,4.25
2022-10-17T08:50:53.456Z,4.29
2022-10-17T08:51:55.161Z,5.23
2022-10-17T08:52:56.951Z,5.24
2022-10-17T08:53:58.675Z,4.92
2022-10-17T08:55:00.474Z,5.11
2022-10-17T08:56:02.291Z,4.79
2022-10-17T08:57:04.759Z,4.13
2022-10-17T08:58:06.665Z,4.36
2022-10-17T08:59:08.464Z,4.65
2022-10-17T09:00:10.605Z,4.87
2022-10-17T09:01:13.288Z,4.41
2022-10-17T09:02:15.286Z,4.45
2022-10-17T09:03:17.171Z,4.03
2022-10-17T09:04:19.131Z,4.65
2022-10-17T09:05:23.963Z,3.95
2022-10-17T09:06:24.543Z,3.80
2022-10-17T09:07:26.308Z,5.01
2022-10-17T09:08:28.137Z,4.26
2022-10-17T09:09:29.833Z,3.80
2022-10-17T09:10:31.537Z,4.33
2022-10-17T09:11:33.393Z,3.79
2022-10-17T09:12:35.168Z,3.17
2022-10-17T09:14:38.550Z,3.74
2022-10-17T09:15:40.319Z,4.01
2022-10-17T09:16:42.060Z,3.83
2022-10-17T09:17:43.870Z,3.73
2022-10-17T09:18:45.648Z,3.56
2022-10-17T09:19:47.349Z,3.55
2022-10-17T09:20:49.378Z,3.41
2022-10-17T09:21:51.185Z,3.11
2022-10-17T09:22:52.988Z,3.12
2022-10-17T09:24:03.767Z,3.20
2022-10-17T09:24:58.462Z,3.14
2022-10-17T09:26:00.265Z,3.10
2022-10-17T09:27:01.981Z,3.06
2022-10-17T09:28:03.783Z,3.06
2022-10-17T09:29:05.498Z,3.06
2022-10-17T09:30:13.063Z,3.65
2022-10-17T09:31:11.671Z,3.35
2022-10-17T09:32:13.358Z,3.69
2022-10-17T09:33:28.073Z,3.48
2022-10-17T09:34:18.872Z,3.82
2022-10-17T09:35:20.567Z,3.32
2022-10-17T09:36:22.276Z,3.85
2022-10-17T09:37:24.031Z,3.43
2022-10-17T09:38:25.910Z,3.68
2022-10-17T09:39:27.562Z,2.91
2022-10-17T09:40:29.239Z,4.05
2022-10-17T09:41:47.201Z,2.94
2022-10-17T09:42:34.563Z,3.63
2022-10-17T09:43:36.269Z,3.22
2022-10-17T09:44:38.023Z,3.43
2022-10-17T09:45:39.849Z,3.63
2022-10-17T09:46:41.662Z,4.24
2022-10-17T09:47:43.444Z,3.03
2022-10-17T09:48:46.923Z,2.58
2022-10-17T09:49:49.444Z,2.74
2022-10-17T09:51:02.525Z,2.61
2022-10-17T09:51:54.836Z,2.44
2022-10-17T09:52:56.641Z,2.55
2022-10-17T09:53:58.424Z,2.64
2022-10-17T09:55:00.227Z,2.94
2022-10-17T09:56:02.021Z,2.70
2022-10-17T09:57:03.823Z,2.50
2022-10-17T09:58:05.628Z,2.43
2022-10-17T09:59:10.362Z,2.51
2022-10-17T10:00:11.321Z,2.77
2022-10-17T10:01:13.145Z,2.55
2022-10-17T10:02:14.845Z,3.05
2022-10-17T10:03:16.553Z,2.96
2022-10-17T10:04:18.341Z,2.85
2022-10-17T10:05:20.102Z,2.87
2022-10-17T10:06:21.898Z,2.87
2022-10-17T10:07:28.997Z,2.88
2022-10-17T10:08:27.291Z,2.76
2022-10-17T10:09:29.024Z,2.52
2022-10-17T10:10:30.853Z,2.50
2022-10-17T10:11:32.532Z,3.06
2022-10-17T10:12:34.131Z,3.15
2022-10-17T10:13:35.935Z,2.58
2022-10-17T10:14:37.728Z,3.33
2022-10-17T10:15:39.473Z,3.11
2022-10-17T10:16:41.562Z,3.20
2022-10-17T10:17:43.368Z,3.43
2022-10-17T10:18:47.415Z,3.48
2022-10-17T10:19:48.668Z,3.18
2022-10-17T10:20:50.394Z,2.67
2022-10-17T10:21:52.079Z,2.11
2022-10-17T10:22:55.947Z,2.40
2022-10-17T10:23:57.477Z,2.42
2022-10-17T10:24:59.189Z,2.73
2022-10-17T10:26:01.035Z,2.50
2022-10-17T10:27:03.226Z,2.71
2022-10-17T10:28:04.908Z,2.50
2022-10-17T10:29:06.679Z,2.45
2022-10-17T10:30:09.000Z,2.28
2022-10-17T10:31:10.755Z,1.75
2022-10-17T10:32:12.550Z,1.99
2022-10-17T10:33:14.254Z,2.20
2022-10-17T10:34:16.056Z,2.19
2022-10-17T10:35:17.696Z,2.26
2022-10-17T10:36:20.397Z,2.46
2022-10-17T10:37:22.238Z,2.21
2022-10-17T10:38:24.061Z,2.88
2022-10-17T10:39:25.886Z,2.49
2022-10-17T10:40:27.721Z,2.68
2022-10-17T10:41:29.602Z,2.56
2022-10-17T10:42:31.412Z,2.21
2022-10-17T10:43:33.425Z,2.57
2022-10-17T10:44:35.351Z,2.19
2022-10-17T10:45:52.583Z,8.11
2022-10-17T10:46:41.031Z,7.49
2022-10-17T10:47:43.253Z,4.46
2022-10-17T10:48:45.080Z,3.01
2022-10-17T10:49:47.548Z,2.70
2022-10-17T10:50:50.457Z,2.58
2022-10-17T10:51:53.617Z,2.53
2022-10-17T10:52:58.636Z,2.72
2022-10-17T10:54:00.525Z,2.41
2022-10-17T10:55:02.841Z,2.43
2022-10-17T10:56:04.812Z,2.72
2022-10-17T10:57:06.783Z,3.06
2022-10-17T10:58:08.854Z,2.81
2022-10-17T10:59:10.692Z,3.17
2022-10-17T11:00:12.513Z,3.03
2022-10-17T11:01:14.389Z,2.44
2022-10-17T11:02:16.417Z,2.37
2022-10-17T11:03:18.294Z,2.34
2022-10-17T11:04:20.299Z,2.68
2022-10-17T11:05:22.162Z,2.57
2022-10-17T11:06:23.933Z,2.45
2022-10-17T11:07:25.797Z,2.35
2022-10-17T11:08:28.582Z,3.06
2022-10-17T11:09:33.107Z,2.96
2022-10-17T11:10:35.503Z,2.56
2022-10-17T11:11:37.834Z,3.03
2022-10-17T11:12:39.751Z,2.76
2022-10-17T11:13:41.926Z,2.37
2022-10-17T11:14:43.686Z,3.06
2022-10-17T11:15:45.495Z,2.55
2022-10-17T11:16:47.323Z,2.97
2022-10-17T11:17:49.201Z,4.59
2022-10-17T11:18:51.078Z,6.71
2022-10-17T11:19:52.879Z,8.41
2022-10-17T11:20:54.721Z,4.87
2022-10-17T11:21:56.519Z,6.53
2022-10-17T11:22:58.393Z,3.29
2022-10-17T11:24:00.229Z,4.29
2022-10-17T11:25:02.050Z,5.38
2022-10-17T11:26:03.934Z,4.70
2022-10-17T11:27:05.659Z,4.65
2022-10-17T11:28:07.562Z,3.91
2022-10-17T11:29:09.430Z,2.79
2022-10-17T11:30:11.402Z,2.21
2022-10-17T11:31:13.234Z,2.45
2022-10-17T11:32:15.088Z,2.34
2022-10-17T11:33:16.959Z,2.17
2022-10-17T11:34:19.391Z,1.81
2022-10-17T11:35:21.237Z,1.70
2022-10-17T11:36:23.045Z,1.95
2022-10-17T11:37:24.879Z,2.04
2022-10-17T11:38:26.759Z,2.14
2022-10-17T11:39:28.587Z,2.19
2022-10-17T11:40:30.417Z,3.17
2022-10-17T11:41:32.246Z,2.72
2022-10-17T11:42:34.088Z,3.57
2022-10-17T11:43:35.984Z,2.80
2022-10-17T11:44:37.787Z,2.64
2022-10-17T11:45:39.616Z,2.41
2022-10-17T11:46:41.452Z,2.23
2022-10-17T11:47:43.284Z,2.14
2022-10-17T11:48:45.170Z,1.65
2022-10-17T11:49:49.934Z,1.77
2022-10-17T11:52:02.921Z,1.92
2022-10-17T11:52:58.411Z,2.04
2022-10-17T11:54:00.667Z,2.48
2022-10-17T11:55:02.487Z,2.25
2022-10-17T11:56:04.359Z,2.36
2022-10-17T11:57:06.172Z,1.95
2022-10-17T11:58:08.003Z,1.95
2022-10-17T11:59:10.509Z,2.08
2022-10-17T12:00:13.046Z,2.55
2022-10-17T12:01:14.864Z,2.29
2022-10-17T12:02:16.802Z,2.02
2022-10-17T12:03:18.620Z,2.35
2022-10-17T12:04:20.547Z,2.33
2022-10-17T12:05:22.413Z,2.27
2022-10-17T12:06:29.176Z,2.05
2022-10-17T12:07:28.278Z,2.26
2022-10-17T12:08:31.328Z,2.06
2022-10-17T12:09:33.367Z,1.96
2022-10-17T12:10:35.208Z,1.92
2022-10-17T12:11:37.089Z,14.29
2022-10-17T12:12:38.907Z,7.96
2022-10-17T12:13:40.729Z,9.43
2022-10-17T12:14:42.608Z,8.31
2022-10-17T12:15:46.737Z,3.99
2022-10-17T12:16:48.476Z,4.86
2022-10-17T12:17:50.305Z,3.59
2022-10-17T12:18:52.138Z,3.34
2022-10-17T12:19:53.891Z,2.81
2022-10-17T12:20:55.831Z,3.10
2022-10-17T12:21:57.663Z,3.31
2022-10-17T12:22:59.486Z,2.66
2022-10-17T12:24:01.202Z,2.62
2022-10-17T12:25:03.146Z,2.48
2022-10-17T12:26:05.426Z,2.27
2022-10-17T12:27:07.529Z,2.51
2022-10-17T12:28:09.241Z,2.32
2022-10-17T12:29:11.059Z,2.31
2022-10-17T12:30:12.955Z,2.21
2022-10-17T12:31:14.995Z,2.41
2022-10-17T12:32:17.193Z,2.02
2022-10-17T12:33:19.570Z,1.94
2022-10-17T12:34:21.546Z,2.09
2022-10-17T12:35:23.424Z,2.28
2022-10-17T12:36:25.558Z,2.11
2022-10-17T12:37:27.803Z,2.01
2022-10-17T12:38:29.824Z,2.24
2022-10-17T12:39:31.646Z,2.37
2022-10-17T12:40:33.598Z,2.85
2022-10-17T12:41:35.428Z,3.26
2022-10-17T12:42:37.243Z,2.92
2022-10-17T12:43:43.947Z,3.18
2022-10-17T12:44:43.524Z,4.55
2022-10-17T12:45:48.549Z,6.74
2022-10-17T12:46:50.530Z,8.67
2022-10-17T12:47:52.358Z,8.07
2022-10-17T12:48:54.293Z,8.17
2022-10-17T12:49:56.805Z,8.07
2022-10-17T12:51:17.731Z,7.68
2022-10-17T12:52:02.838Z,4.89
2022-10-17T12:53:04.537Z,5.24
2022-10-17T12:54:06.534Z,5.15
2022-10-17T12:55:13.097Z,4.76
2022-10-17T12:56:13.341Z,3.71
2022-10-17T12:57:15.170Z,3.22
2022-10-17T12:58:18.799Z,3.37
2022-10-17T12:59:22.421Z,3.31
2022-10-17T13:00:26.082Z,3.36
2022-10-17T13:01:27.935Z,3.39
2022-10-17T13:02:29.672Z,3.45
2022-10-17T13:03:31.480Z,3.35
2022-10-17T13:04:33.270Z,2.66
2022-10-17T13:05:35.065Z,2.85
2022-10-17T13:06:36.819Z,2.63
2022-10-17T13:07:38.653Z,2.90
2022-10-17T13:08:40.346Z,2.79
2022-10-17T13:09:42.142Z,3.38
2022-10-17T13:10:44.113Z,3.09
2022-10-17T13:11:46.005Z,3.84
2022-10-17T13:12:47.967Z,3.41
2022-10-17T13:13:49.720Z,3.21
2022-10-17T13:14:51.405Z,3.90
2022-10-17T13:15:52.994Z,4.27
2022-10-17T13:16:54.740Z,5.03
2022-10-17T13:17:56.442Z,4.31
2022-10-17T13:18:58.132Z,3.87
2022-10-17T13:19:59.924Z,3.87
2022-10-17T13:21:01.630Z,4.11
2022-10-17T13:22:06.791Z,3.58
2022-10-17T13:23:07.068Z,4.23
2022-10-17T13:24:11.834Z,5.23
2022-10-17T13:25:13.559Z,5.10
2022-10-17T13:26:15.781Z,4.92
2022-10-17T13:27:17.646Z,4.65
2022-10-17T13:28:19.431Z,4.46
2022-10-17T13:29:21.115Z,4.10
2022-10-17T13:30:23.419Z,3.90
2022-10-17T13:31:26.519Z,4.79
2022-10-17T13:32:28.731Z,5.07
2022-10-17T13:33:30.688Z,4.98
2022-10-17T13:34:33.016Z,4.44
2022-10-17T13:36:38.428Z,4.41
2022-10-17T13:37:40.305Z,4.22
2022-10-17T13:38:42.836Z,4.15
2022-10-17T13:39:55.296Z,4.67
2022-10-17T13:40:50.359Z,4.68
2022-10-17T13:41:52.052Z,5.08
2022-10-17T13:42:54.106Z,4.43
2022-10-17T13:43:55.915Z,5.97
2022-10-17T13:44:57.733Z,5.50
2022-10-17T13:46:09.144Z,5.40
2022-10-17T13:47:03.153Z,4.77
2022-10-17T13:48:05.007Z,4.77
2022-10-17T13:49:06.809Z,4.47
2022-10-17T13:50:26.488Z,4.85
2022-10-17T13:51:12.460Z,4.53
2022-10-17T13:52:14.264Z,4.55
2022-10-17T13:53:16.123Z,4.19
2022-10-17T13:54:19.562Z,3.69